createdAt,value
2023-08-29T00:01:08.659Z,28.8
2023-08-29T00:02:24.905Z,28.6
2023-08-29T00:03:40.214Z,29.5
2023-08-29T00:04:56.463Z,28.8
2023-08-29T00:06:12.708Z,28.5
2023-08-29T00:07:26.000Z,28.4
2023-08-29T00:07:28.959Z,28.9
2023-08-29T00:10:01.456Z,28.4
2023-08-29T00:11:17.703Z,27.8
2023-08-29T00:12:33.951Z,28.5
2023-08-29T00:13:50.202Z,28.8
2023-08-29T00:15:06.449Z,28.3
2023-08-29T00:16:22.695Z,28.7
2023-08-29T00:17:38.943Z,28.4
2023-08-29T00:18:55.210Z,28.8
2023-08-29T00:20:10.504Z,29
2023-08-29T00:21:26.753Z,28.6
2023-08-29T00:22:42.995Z,28.7
2023-08-29T00:23:59.250Z,29.7
2023-08-29T00:25:15.497Z,29.3
2023-08-29T00:26:31.741Z,29.5
2023-08-29T00:27:47.999Z,29.6
2023-08-29T00:29:04.242Z,30.3
2023-08-29T00:30:20.490Z,30.3
2023-08-29T00:31:36.743Z,29.9
2023-08-29T00:32:52.987Z,30.3
2023-08-29T00:34:09.235Z,31
2023-08-29T00:35:25.486Z,30.6
2023-08-29T00:36:40.791Z,30.6
2023-08-29T00:37:54.000Z,31.4
2023-08-29T00:37:57.037Z,31.2
2023-08-29T00:40:29.538Z,31
2023-08-29T00:41:45.791Z,31.4
2023-08-29T00:43:02.269Z,32.3
2023-08-29T00:44:17.583Z,31.6
2023-08-29T00:45:33.827Z,32.2
2023-08-29T00:46:50.084Z,33
2023-08-29T00:48:06.332Z,32.2
2023-08-29T00:49:22.582Z,32
2023-08-29T00:50:38.832Z,32.5
2023-08-29T00:51:55.077Z,32.4
2023-08-29T00:53:11.325Z,31.6
2023-08-29T00:54:27.576Z,32.5
2023-08-29T00:55:41.000Z,32.4
2023-08-29T00:55:43.827Z,32.4
2023-08-29T00:58:16.317Z,32.1
2023-08-29T00:59:32.581Z,33.2
2023-08-29T01:00:47.872Z,32.6
2023-08-29T01:02:04.129Z,33.1
2023-08-29T01:03:20.367Z,33.3
2023-08-29T01:04:36.622Z,33.5
2023-08-29T01:05:50.000Z,32.6
2023-08-29T01:05:52.873Z,33.1
2023-08-29T01:08:25.366Z,33.8
2023-08-29T01:09:41.611Z,33.4
2023-08-29T01:10:57.869Z,33.8
2023-08-29T01:12:14.115Z,31.7
2023-08-29T01:13:30.363Z,32.3
2023-08-29T01:14:46.608Z,32.6
2023-08-29T01:16:02.855Z,31.4
2023-08-29T01:17:18.166Z,31.8
2023-08-29T01:18:34.425Z,33.6
2023-08-29T01:19:50.656Z,31.3
2023-08-29T01:21:06.910Z,32.8
2023-08-29T01:22:23.159Z,33.2
2023-08-29T01:23:39.408Z,33.3
2023-08-29T01:24:55.663Z,33.5
2023-08-29T01:26:11.908Z,33.4
2023-08-29T01:27:28.151Z,32.4
2023-08-29T01:28:44.406Z,33.5
2023-08-29T01:30:00.648Z,33.2
2023-08-29T01:31:16.900Z,32.9
2023-08-29T01:32:30.000Z,33.9
2023-08-29T01:32:33.155Z,33.1
2023-08-29T01:35:04.712Z,34.2
2023-08-29T01:36:20.954Z,34.1
2023-08-29T01:37:35.000Z,33.5
2023-08-29T01:37:37.209Z,34.3
2023-08-29T01:40:09.712Z,33.7
2023-08-29T01:41:23.000Z,34.2
2023-08-29T01:41:25.988Z,34.5
2023-08-29T01:43:58.464Z,32.6
2023-08-29T01:45:14.707Z,33.3
2023-08-29T01:46:30.958Z,33.4
2023-08-29T01:47:47.211Z,32.3
2023-08-29T01:49:03.466Z,33.4
2023-08-29T01:50:19.704Z,34.1
2023-08-29T01:51:35.009Z,33.7
2023-08-29T01:52:51.264Z,33.9
2023-08-29T01:54:07.515Z,33.8
2023-08-29T01:55:23.776Z,33.8
2023-08-29T01:56:40.018Z,34.1
2023-08-29T01:57:56.270Z,33.9
2023-08-29T01:59:12.513Z,34.2
2023-08-29T02:00:28.760Z,33.9
2023-08-29T02:01:45.037Z,34.4
2023-08-29T02:03:01.269Z,35.2
2023-08-29T02:04:17.518Z,35.1
2023-08-29T02:05:33.769Z,33.9
2023-08-29T02:06:46.000Z,35.1
2023-08-29T02:06:50.026Z,34.3
2023-08-29T02:09:21.578Z,34.8
2023-08-29T02:10:37.829Z,34.9
2023-08-29T02:11:54.071Z,34.4
2023-08-29T02:13:10.326Z,34.6
2023-08-29T02:14:26.579Z,33.8
2023-08-29T02:15:42.822Z,34.7
2023-08-29T02:16:59.078Z,34.7
2023-08-29T02:18:15.329Z,33.5
2023-08-29T02:19:31.574Z,33.4
2023-08-29T02:20:47.820Z,33.6
2023-08-29T02:22:04.069Z,33
2023-08-29T02:23:20.318Z,33.6
2023-08-29T02:24:35.628Z,32.9
2023-08-29T02:25:51.883Z,34.1
2023-08-29T02:27:08.129Z,32.7
2023-08-29T02:28:22.000Z,33.7
2023-08-29T02:28:24.375Z,33.8
2023-08-29T02:30:56.874Z,33.5
2023-08-29T02:32:13.127Z,33.4
2023-08-29T02:33:29.376Z,33
2023-08-29T02:34:45.635Z,34.2
2023-08-29T02:36:01.881Z,34.4
2023-08-29T02:37:18.128Z,33.6
2023-08-29T02:38:34.385Z,33.8
2023-08-29T02:39:50.627Z,34
2023-08-29T02:41:05.941Z,34.3
2023-08-29T02:42:22.187Z,34.1
2023-08-29T02:43:38.436Z,34.9
2023-08-29T02:44:54.683Z,34.2
2023-08-29T02:46:10.943Z,33.8
2023-08-29T02:47:27.196Z,33.9
2023-08-29T02:48:43.440Z,34.1
2023-08-29T02:49:59.684Z,34
2023-08-29T02:51:15.945Z,33.5
2023-08-29T02:52:32.191Z,33.2
2023-08-29T02:53:48.436Z,34.2
2023-08-29T02:55:04.688Z,34.4
2023-08-29T02:56:20.941Z,35.1
2023-08-29T02:57:37.191Z,34.5
2023-08-29T02:58:52.495Z,34.2
2023-08-29T03:00:08.746Z,34.3
2023-08-29T03:01:24.986Z,33.8
2023-08-29T03:02:41.240Z,34
2023-08-29T03:03:57.500Z,34
2023-08-29T03:05:13.749Z,33.7
2023-08-29T03:06:29.994Z,36.1
2023-08-29T03:07:46.251Z,35.7
2023-08-29T03:09:02.495Z,35.8
2023-08-29T03:10:18.741Z,36.5
2023-08-29T03:11:34.988Z,37
2023-08-29T03:12:51.242Z,37
2023-08-29T03:14:07.498Z,36.9
2023-08-29T03:15:22.806Z,37.2
2023-08-29T03:16:39.053Z,36.5
2023-08-29T03:17:55.304Z,37.8
2023-08-29T03:19:11.556Z,37.8
2023-08-29T03:20:27.795Z,37.8
2023-08-29T03:21:44.050Z,38.4
2023-08-29T03:23:00.297Z,38.4
2023-08-29T03:24:16.554Z,37.4
2023-08-29T03:25:32.800Z,38
2023-08-29T03:26:46.000Z,38.9
2023-08-29T03:26:49.051Z,38.2
2023-08-29T03:29:21.548Z,39.1
2023-08-29T03:30:37.810Z,38.7
2023-08-29T03:31:53.108Z,38.6
2023-08-29T03:34:25.609Z,38.6
2023-08-29T03:35:41.864Z,38.5
2023-08-29T03:36:58.107Z,39.2
2023-08-29T03:38:14.358Z,38.9
2023-08-29T03:39:30.615Z,39.2
2023-08-29T03:40:46.860Z,38.3
2023-08-29T03:42:03.112Z,39.6
2023-08-29T03:43:19.364Z,38.3
2023-08-29T03:44:35.612Z,38.4
2023-08-29T03:45:51.862Z,38.4
2023-08-29T03:47:08.104Z,38.1
2023-08-29T03:48:23.420Z,38.3
2023-08-29T03:49:39.670Z,38.6
2023-08-29T03:50:55.912Z,38.8
2023-08-29T03:52:12.171Z,38.7
2023-08-29T03:53:28.412Z,38.2
2023-08-29T03:54:44.665Z,38.2
2023-08-29T03:56:00.914Z,39.7
2023-08-29T03:57:17.169Z,38.9
2023-08-29T03:58:33.411Z,39.3
2023-08-29T03:59:49.671Z,39.6
2023-08-29T04:01:05.917Z,38.7
2023-08-29T04:02:22.168Z,39.4
2023-08-29T04:03:38.423Z,38.8
2023-08-29T04:04:53.725Z,40
2023-08-29T04:06:09.977Z,39.3
2023-08-29T04:07:26.231Z,39.3
2023-08-29T04:08:42.481Z,39.2
2023-08-29T04:09:58.729Z,39.1
2023-08-29T04:11:14.978Z,39.6
2023-08-29T04:12:31.228Z,39.6
2023-08-29T04:13:47.475Z,38.8
2023-08-29T04:15:03.728Z,40
2023-08-29T04:16:19.972Z,40.2
2023-08-29T04:17:36.230Z,39.5
2023-08-29T04:18:52.473Z,40.8
2023-08-29T04:20:05.000Z,39.1
2023-08-29T04:20:08.742Z,39.2
2023-08-29T04:22:40.292Z,40.1
2023-08-29T04:23:56.541Z,40
2023-08-29T04:25:12.785Z,39.4
2023-08-29T04:26:29.033Z,40.1
2023-08-29T04:27:45.287Z,40
2023-08-29T04:29:01.538Z,40.6
2023-08-29T04:30:17.784Z,41
2023-08-29T04:31:34.032Z,41.3
2023-08-29T04:32:50.296Z,40.9
2023-08-29T04:34:06.538Z,41.3
2023-08-29T04:35:22.783Z,41.1
2023-08-29T04:36:39.041Z,41
2023-08-29T04:37:55.285Z,40.5
2023-08-29T04:39:10.587Z,40.4
2023-08-29T04:40:24.000Z,40.2
2023-08-29T04:40:26.843Z,39.9
2023-08-29T04:42:59.344Z,40.8
2023-08-29T04:44:15.606Z,40.8
2023-08-29T04:45:31.842Z,39.9
2023-08-29T04:46:48.089Z,39.9
2023-08-29T04:48:04.349Z,39.7
2023-08-29T04:49:20.600Z,38.7
2023-08-29T04:50:36.843Z,40
2023-08-29T04:51:50.000Z,37.3
2023-08-29T04:51:53.097Z,38.9
2023-08-29T04:54:25.591Z,38.2
2023-08-29T04:55:40.901Z,37.6
2023-08-29T04:56:57.153Z,37.6
2023-08-29T04:58:13.409Z,37.8
2023-08-29T04:59:29.660Z,37.5
2023-08-29T05:00:45.903Z,37.2
2023-08-29T05:02:01.235Z,37.6
2023-08-29T05:03:17.472Z,37.6
2023-08-29T05:04:33.722Z,37.3
2023-08-29T05:05:49.975Z,37.4
2023-08-29T05:07:06.220Z,37.6
2023-08-29T05:08:22.471Z,37.3
2023-08-29T05:09:38.722Z,38.4
2023-08-29T05:10:54.966Z,37.7
2023-08-29T05:12:11.215Z,37.8
2023-08-29T05:13:27.473Z,38.1
2023-08-29T05:14:43.723Z,38.2
2023-08-29T05:15:59.966Z,37.2
2023-08-29T05:17:16.219Z,38.2
2023-08-29T05:18:31.528Z,37.8
2023-08-29T05:19:47.784Z,37.9
2023-08-29T05:21:04.052Z,37.9
2023-08-29T05:22:20.283Z,38.2
2023-08-29T05:23:36.532Z,37.9
2023-08-29T05:24:52.786Z,38.7
2023-08-29T05:26:09.034Z,38.9
2023-08-29T05:27:25.282Z,37.5
2023-08-29T05:28:41.526Z,38
2023-08-29T05:29:55.000Z,38.4
2023-08-29T05:29:57.774Z,37.5
2023-08-29T05:32:30.285Z,38.7
2023-08-29T05:33:46.529Z,39
2023-08-29T05:35:01.834Z,38.2
2023-08-29T05:36:18.088Z,38.1
2023-08-29T05:37:34.338Z,37.8
2023-08-29T05:38:50.592Z,38.2
2023-08-29T05:40:06.841Z,37.1
2023-08-29T05:41:23.093Z,37.4
2023-08-29T05:43:55.592Z,35.8
2023-08-29T05:45:11.838Z,37.4
2023-08-29T05:46:28.089Z,36.8
2023-08-29T05:47:44.338Z,37.9
2023-08-29T05:49:00.588Z,36.8
2023-08-29T05:50:16.841Z,37.4
2023-08-29T05:51:32.142Z,36.8
2023-08-29T05:52:48.400Z,36.4
2023-08-29T05:55:20.900Z,37
2023-08-29T05:56:37.150Z,38.8
2023-08-29T05:57:53.403Z,36.8
2023-08-29T05:59:09.646Z,37.9
2023-08-29T06:00:25.894Z,37.5
2023-08-29T06:01:39.000Z,35.9
2023-08-29T06:01:42.142Z,36.4
2023-08-29T06:04:14.650Z,36.9
2023-08-29T06:05:30.900Z,35.5
2023-08-29T06:06:47.155Z,36
2023-08-29T06:09:18.703Z,37.3
2023-08-29T06:10:34.042Z,36.9
2023-08-29T06:11:50.283Z,38.8
2023-08-29T06:13:05.586Z,39.3
2023-08-29T06:14:21.838Z,37.4
2023-08-29T06:15:38.086Z,37.5
2023-08-29T06:16:54.329Z,40.1
2023-08-29T06:18:10.583Z,38.2
2023-08-29T06:19:26.838Z,37.4
2023-08-29T06:20:40.000Z,36.6
2023-08-29T06:20:43.081Z,37.2
2023-08-29T06:23:14.667Z,35.2
2023-08-29T06:24:30.908Z,35.7
2023-08-29T06:25:46.222Z,37.1
2023-08-29T06:27:02.467Z,36.1
2023-08-29T06:28:18.720Z,37.1
2023-08-29T06:29:34.973Z,37.5
2023-08-29T06:30:51.218Z,37
2023-08-29T06:32:07.473Z,36.9
2023-08-29T06:33:23.719Z,38
2023-08-29T06:34:39.971Z,39.3
2023-08-29T06:35:56.215Z,39.3
2023-08-29T06:37:12.471Z,38.8
2023-08-29T06:38:28.714Z,39.7
2023-08-29T06:39:44.973Z,38.9
2023-08-29T06:41:01.228Z,40.8
2023-08-29T06:42:16.530Z,41.6
2023-08-29T06:43:32.777Z,42.3
2023-08-29T06:44:49.027Z,42.7
2023-08-29T06:46:05.273Z,44.5
2023-08-29T06:47:21.536Z,43.7
2023-08-29T06:48:37.781Z,42.9
2023-08-29T06:49:54.027Z,41
2023-08-29T06:51:10.281Z,41.8
2023-08-29T06:52:26.522Z,40.1
2023-08-29T06:53:42.782Z,41.3
2023-08-29T06:54:59.033Z,41
2023-08-29T06:56:15.284Z,41.7
2023-08-29T06:57:31.528Z,38.9
2023-08-29T06:58:46.838Z,39.8
2023-08-29T07:00:03.096Z,40.2
2023-08-29T07:01:19.340Z,39.8
2023-08-29T07:02:35.583Z,42.1
2023-08-29T07:03:51.842Z,42.1
2023-08-29T07:05:08.087Z,41.1
2023-08-29T07:06:22.000Z,42.4
2023-08-29T07:06:24.335Z,42
2023-08-29T07:08:56.833Z,41.6
2023-08-29T07:10:13.089Z,41.6
2023-08-29T07:11:29.332Z,42.7
2023-08-29T07:12:45.587Z,41.7
2023-08-29T07:14:01.840Z,41.9
2023-08-29T07:15:18.090Z,42
2023-08-29T07:16:34.350Z,42.5
2023-08-29T07:17:50.593Z,42
2023-08-29T07:19:05.890Z,41.9
2023-08-29T07:20:22.149Z,42.1
2023-08-29T07:21:38.404Z,42.1
2023-08-29T07:22:54.636Z,42.3
2023-08-29T07:24:10.881Z,43.6
2023-08-29T07:26:43.385Z,45.9
2023-08-29T07:29:15.914Z,46
2023-08-29T07:30:32.135Z,46.5
2023-08-29T07:31:48.393Z,46
2023-08-29T07:33:04.636Z,47.1
2023-08-29T07:34:20.887Z,45.8
2023-08-29T07:35:37.144Z,45.6
2023-08-29T07:36:52.436Z,47.6
2023-08-29T07:38:08.687Z,49
2023-08-29T07:39:24.936Z,46.3
2023-08-29T07:40:41.182Z,45.4
2023-08-29T07:41:57.438Z,50.8
2023-08-29T07:43:13.687Z,54.3
2023-08-29T07:44:29.936Z,51.4
2023-08-29T07:45:46.180Z,49.2
2023-08-29T07:47:02.429Z,48.1
2023-08-29T07:48:18.686Z,50.3
2023-08-29T07:49:34.937Z,50.5
2023-08-29T07:50:51.182Z,47.6
2023-08-29T07:52:07.435Z,51
2023-08-29T07:53:22.727Z,49.6
2023-08-29T07:54:38.988Z,52
2023-08-29T07:55:55.229Z,54.2
2023-08-29T07:57:11.486Z,56.9
2023-08-29T07:58:27.736Z,59.8
2023-08-29T07:59:43.981Z,59.1
2023-08-29T08:01:00.234Z,55
2023-08-29T08:02:16.476Z,58.2
2023-08-29T08:03:32.727Z,60.6
2023-08-29T08:04:48.985Z,56.7
2023-08-29T08:06:05.237Z,59.1
2023-08-29T08:07:21.487Z,62.4
2023-08-29T08:08:37.739Z,63.1
2023-08-29T08:09:53.037Z,60.7
2023-08-29T08:11:09.289Z,61.5
2023-08-29T08:12:25.543Z,64
2023-08-29T08:13:41.793Z,65.1
2023-08-29T08:14:58.040Z,64.1
2023-08-29T08:16:14.289Z,64.1
2023-08-29T08:17:30.533Z,62.5
2023-08-29T08:18:46.792Z,62.1
2023-08-29T08:20:00.000Z,61.5
2023-08-29T08:20:03.036Z,63.3
2023-08-29T08:22:35.548Z,60.5
2023-08-29T08:23:51.789Z,59.5
2023-08-29T08:25:08.040Z,60.6
2023-08-29T08:26:23.350Z,58.4
2023-08-29T08:27:37.000Z,58
2023-08-29T08:27:39.608Z,59.2
2023-08-29T08:30:12.094Z,55.7
2023-08-29T08:31:28.353Z,55.6
2023-08-29T08:32:44.602Z,55.5
2023-08-29T08:34:00.847Z,56.1
2023-08-29T08:35:17.093Z,53.9
2023-08-29T08:36:33.341Z,54.6
2023-08-29T08:37:49.590Z,56.8
2023-08-29T08:39:05.850Z,57.2
2023-08-29T08:40:22.101Z,57.5
2023-08-29T08:41:36.000Z,55.9
2023-08-29T08:41:38.346Z,55.3
2023-08-29T08:44:09.898Z,55.6
2023-08-29T08:45:26.147Z,55.8
2023-08-29T08:46:40.000Z,56.3
2023-08-29T08:46:42.409Z,55
2023-08-29T08:49:14.905Z,56.9
2023-08-29T08:50:31.151Z,56.3
2023-08-29T08:51:47.403Z,56.6
2023-08-29T08:53:03.657Z,54.6
2023-08-29T08:54:19.901Z,53.2
2023-08-29T08:55:36.151Z,55
2023-08-29T08:56:52.400Z,55.6
2023-08-29T08:58:08.650Z,55.3
2023-08-29T08:59:24.909Z,54.9
2023-08-29T09:00:40.208Z,52.6
2023-08-29T09:01:56.456Z,51.3
2023-08-29T09:03:12.713Z,52.9
2023-08-29T09:04:28.954Z,51
2023-08-29T09:05:45.216Z,50
2023-08-29T09:07:01.460Z,50.5
2023-08-29T09:08:17.710Z,48.9
2023-08-29T09:09:33.961Z,49.7
2023-08-29T09:10:50.208Z,49.7
2023-08-29T09:12:06.467Z,48.3
2023-08-29T09:13:22.715Z,48.7
2023-08-29T09:15:55.211Z,49.3
2023-08-29T09:17:11.470Z,48.2
2023-08-29T09:18:26.778Z,48.4
2023-08-29T09:19:43.029Z,47.9
2023-08-29T09:20:59.275Z,50.6
2023-08-29T09:22:15.537Z,48.8
2023-08-29T09:23:31.783Z,49.2
2023-08-29T09:24:48.026Z,48.1
2023-08-29T09:26:04.281Z,47.9
2023-08-29T09:27:20.527Z,46.8
2023-08-29T09:28:36.781Z,47.3
2023-08-29T09:29:53.024Z,46.5
2023-08-29T09:31:09.281Z,45.8
2023-08-29T09:32:25.526Z,46.7
2023-08-29T09:33:41.778Z,46.5
2023-08-29T09:34:58.030Z,45.8
2023-08-29T09:36:13.328Z,46.1
2023-08-29T09:37:29.576Z,46.8
2023-08-29T09:38:45.820Z,46.7
2023-08-29T09:40:02.069Z,46.5
2023-08-29T09:41:18.323Z,47.2
2023-08-29T09:42:34.575Z,48.1
2023-08-29T09:43:50.824Z,47.7
2023-08-29T09:45:07.076Z,48.6
2023-08-29T09:46:23.329Z,45.3
2023-08-29T09:47:39.588Z,47.4
2023-08-29T09:48:55.824Z,46.1
2023-08-29T09:50:12.080Z,47.1
2023-08-29T09:51:28.326Z,47.9
2023-08-29T09:52:43.633Z,50.3
2023-08-29T09:53:59.886Z,48.5
2023-08-29T09:55:16.144Z,48.5
2023-08-29T09:56:32.381Z,45.3
2023-08-29T09:57:48.637Z,46.6
2023-08-29T09:59:04.884Z,47.2
2023-08-29T10:00:21.132Z,45.7
2023-08-29T10:02:53.643Z,49.4
2023-08-29T10:04:09.884Z,49.3
2023-08-29T10:05:26.135Z,50.3
2023-08-29T10:06:40.000Z,48
2023-08-29T10:06:42.388Z,49.6
2023-08-29T10:09:13.952Z,48.3
2023-08-29T10:10:30.198Z,47.1
2023-08-29T10:11:46.449Z,47.3
2023-08-29T10:13:02.690Z,45.9
2023-08-29T10:14:18.952Z,43.7
2023-08-29T10:15:35.198Z,44.8
2023-08-29T10:16:51.448Z,45
2023-08-29T10:18:07.703Z,43.3
2023-08-29T10:19:23.946Z,43.5
2023-08-29T10:20:40.197Z,43
2023-08-29T10:21:56.446Z,43.3
2023-08-29T10:23:12.701Z,42.6
2023-08-29T10:24:28.952Z,43.6
2023-08-29T10:25:45.201Z,42.7
2023-08-29T10:27:00.517Z,43.4
2023-08-29T10:28:16.773Z,42.7
2023-08-29T10:29:33.012Z,42.4
2023-08-29T10:30:49.259Z,43.3
2023-08-29T10:32:05.511Z,42.8
2023-08-29T10:33:21.760Z,44.5
2023-08-29T10:35:54.264Z,43.3
2023-08-29T10:37:10.523Z,42.5
2023-08-29T10:38:26.775Z,43.1
2023-08-29T10:39:43.012Z,42.9
2023-08-29T10:40:59.273Z,42.4
2023-08-29T10:42:15.520Z,42.9
2023-08-29T10:43:31.773Z,42.5
2023-08-29T10:44:47.067Z,41.8
2023-08-29T10:46:03.311Z,41.8
2023-08-29T10:48:35.820Z,40.6
2023-08-29T10:49:52.066Z,41.6
2023-08-29T10:51:08.329Z,41
2023-08-29T10:52:24.571Z,40.6
2023-08-29T10:53:40.823Z,40.7
2023-08-29T10:54:57.071Z,38.7
2023-08-29T10:56:13.330Z,38.7
2023-08-29T10:57:27.000Z,37.7
2023-08-29T10:57:29.574Z,37.5
2023-08-29T11:00:02.071Z,37.1
2023-08-29T11:01:17.385Z,36.9
2023-08-29T11:02:33.632Z,36.9
2023-08-29T11:03:49.891Z,38.2
2023-08-29T11:05:06.137Z,37.1
2023-08-29T11:06:22.385Z,38.1
2023-08-29T11:07:38.637Z,38.2
2023-08-29T11:08:54.879Z,37.9
2023-08-29T11:10:11.129Z,38.3
2023-08-29T11:11:27.376Z,39.4
2023-08-29T11:12:43.625Z,40.3
2023-08-29T11:13:59.878Z,41
2023-08-29T11:15:16.125Z,38.7
2023-08-29T11:16:32.375Z,34.9
2023-08-29T11:17:48.625Z,35.5
2023-08-29T11:19:03.929Z,35.4
2023-08-29T11:20:20.177Z,36.5
2023-08-29T11:21:36.428Z,37
2023-08-29T11:22:52.671Z,36.7
2023-08-29T11:24:08.929Z,36.1
2023-08-29T11:25:25.174Z,37.3
2023-08-29T11:26:41.416Z,37.5
2023-08-29T11:27:57.670Z,37.3
2023-08-29T11:29:13.920Z,35.7
2023-08-29T11:30:30.176Z,37
2023-08-29T11:31:46.410Z,35.2
2023-08-29T11:33:02.665Z,35.5
2023-08-29T11:34:18.912Z,34.6
2023-08-29T11:35:34.219Z,34.7
2023-08-29T11:36:50.459Z,34.6
2023-08-29T11:38:06.716Z,33.8
2023-08-29T11:39:22.963Z,33.1
2023-08-29T11:40:39.214Z,32.5
2023-08-29T11:41:55.460Z,33.3
2023-08-29T11:43:11.707Z,33.7
2023-08-29T11:44:27.951Z,32.4
2023-08-29T11:45:44.206Z,31.8
2023-08-29T11:47:00.452Z,31.4
2023-08-29T11:48:16.704Z,30.2
2023-08-29T11:49:32.946Z,30.4
2023-08-29T11:50:49.200Z,30.8
2023-08-29T11:52:04.502Z,30.7
2023-08-29T11:53:20.746Z,30.9
2023-08-29T11:54:37.001Z,31.9
2023-08-29T11:55:53.249Z,31.2
2023-08-29T11:57:09.504Z,30.3
2023-08-29T11:58:25.737Z,29.3
2023-08-29T11:59:41.997Z,28.8
2023-08-29T12:00:58.258Z,28.6
2023-08-29T12:02:14.492Z,28.3
2023-08-29T12:03:30.739Z,29.1
2023-08-29T12:04:46.984Z,29.2
2023-08-29T12:06:03.240Z,28.9
2023-08-29T12:07:19.478Z,28
2023-08-29T12:08:34.785Z,26.8
2023-08-29T12:09:51.036Z,26.1
2023-08-29T12:11:07.290Z,26.9
2023-08-29T12:12:23.536Z,25.3
2023-08-29T12:13:39.778Z,26.1
2023-08-29T12:14:56.031Z,26.4
2023-08-29T12:16:12.282Z,26.5
2023-08-29T12:17:28.525Z,26.7
2023-08-29T12:18:44.769Z,27.1
2023-08-29T12:19:58.000Z,27.3
2023-08-29T12:20:01.014Z,27.9
2023-08-29T12:22:33.518Z,27.6
2023-08-29T12:23:49.763Z,27
2023-08-29T12:25:05.077Z,27.4
2023-08-29T12:26:21.316Z,27.6
2023-08-29T12:27:37.572Z,28.6
2023-08-29T12:28:51.000Z,28.5
2023-08-29T12:28:53.817Z,28.7
2023-08-29T12:31:26.000Z,28.8
2023-08-29T12:32:42.557Z,28.1
2023-08-29T12:33:58.799Z,26.9
2023-08-29T12:35:15.053Z,26.2
2023-08-29T12:36:31.297Z,26.5
2023-08-29T12:37:47.544Z,26.6
2023-08-29T12:39:03.790Z,27
2023-08-29T12:40:20.046Z,27
2023-08-29T12:41:35.339Z,25.2
2023-08-29T12:42:51.590Z,25.2
2023-08-29T12:44:07.836Z,24.6
2023-08-29T12:45:24.084Z,25.2
2023-08-29T12:46:40.333Z,24.9
2023-08-29T12:47:56.577Z,25.2
2023-08-29T12:49:12.828Z,24.8
2023-08-29T12:50:29.079Z,24.9
2023-08-29T12:51:45.325Z,25.1
2023-08-29T12:53:01.569Z,24.9
2023-08-29T12:54:17.818Z,24.3
2023-08-29T12:55:34.065Z,25.4
2023-08-29T12:56:50.313Z,24.7
2023-08-29T12:58:06.558Z,24.8
2023-08-29T12:59:20.000Z,24.3
2023-08-29T12:59:22.808Z,24.3
2023-08-29T13:00:35.000Z,23.7
2023-08-29T13:03:10.614Z,23.2
2023-08-29T13:04:26.864Z,23
2023-08-29T13:05:43.110Z,23.2
2023-08-29T13:06:59.358Z,23.9
2023-08-29T13:08:15.609Z,23.1
2023-08-29T13:09:31.857Z,21.7
2023-08-29T13:10:48.101Z,22.4
2023-08-29T13:12:04.353Z,22.4
2023-08-29T13:13:20.594Z,22.8
2023-08-29T13:14:36.845Z,23.9
2023-08-29T13:15:53.101Z,23.8
2023-08-29T13:17:05.000Z,23.7
2023-08-29T13:17:09.345Z,23.4
2023-08-29T13:19:40.912Z,23.3
2023-08-29T13:20:57.149Z,23.8
2023-08-29T13:22:13.401Z,23.4
2023-08-29T13:23:29.648Z,24.3
2023-08-29T13:24:45.894Z,24.1
2023-08-29T13:26:02.148Z,24.8
2023-08-29T13:27:18.390Z,24.4
2023-08-29T13:28:34.643Z,25.2
2023-08-29T13:29:50.888Z,25.4
2023-08-29T13:31:07.138Z,25
2023-08-29T13:32:23.385Z,24
2023-08-29T13:33:38.701Z,24.1
2023-08-29T13:34:54.944Z,23.9
2023-08-29T13:36:11.201Z,24.5
2023-08-29T13:37:27.442Z,26.6
2023-08-29T13:38:43.702Z,25.6
2023-08-29T13:39:59.941Z,24.6
2023-08-29T13:41:16.186Z,24.5
2023-08-29T13:42:32.444Z,25.4
2023-08-29T13:43:48.689Z,24.7
2023-08-29T13:45:04.956Z,23.9
2023-08-29T13:46:21.187Z,22.9
2023-08-29T13:47:37.434Z,22.2
2023-08-29T13:50:09.930Z,22.8
2023-08-29T13:51:25.231Z,23.6
2023-08-29T13:52:41.487Z,24.3
2023-08-29T13:53:57.741Z,24.6
2023-08-29T13:55:13.988Z,25.6
2023-08-29T13:56:30.232Z,25.4
2023-08-29T13:57:46.478Z,25.9
2023-08-29T13:59:02.722Z,27.1
2023-08-29T14:00:18.979Z,27.4
2023-08-29T14:01:35.225Z,27.6
2023-08-29T14:02:51.477Z,28.2
2023-08-29T14:04:07.758Z,28
2023-08-29T14:05:23.971Z,28.1
2023-08-29T14:06:40.220Z,27.9
2023-08-29T14:07:55.520Z,28.1
2023-08-29T14:09:11.770Z,28.4
2023-08-29T14:10:28.014Z,28
2023-08-29T14:11:44.272Z,28
2023-08-29T14:13:00.513Z,28
2023-08-29T14:14:16.764Z,28.5
2023-08-29T14:15:33.010Z,28.6
2023-08-29T14:16:49.270Z,29.1
2023-08-29T14:18:05.510Z,30.3
2023-08-29T14:19:21.769Z,29.6
2023-08-29T14:20:38.005Z,29.7
2023-08-29T14:21:54.264Z,28.2
2023-08-29T14:23:10.500Z,28.3
2023-08-29T14:24:25.817Z,27.9
2023-08-29T14:25:42.051Z,28.7
2023-08-29T14:26:58.289Z,28.8
2023-08-29T14:28:14.538Z,28
2023-08-29T14:29:30.793Z,28.1
2023-08-29T14:30:47.034Z,27.5
2023-08-29T14:32:03.297Z,27
2023-08-29T14:33:19.544Z,26.5
2023-08-29T14:34:35.778Z,26.8
2023-08-29T14:35:52.029Z,27
2023-08-29T14:37:08.284Z,26.5
2023-08-29T14:38:24.527Z,26.9
2023-08-29T14:39:40.779Z,26.8
2023-08-29T14:40:53.000Z,26.3
2023-08-29T14:40:56.085Z,26.5
2023-08-29T14:43:28.586Z,26.8
2023-08-29T14:44:44.833Z,26.2
2023-08-29T14:46:01.081Z,26
2023-08-29T14:47:17.330Z,25.7
2023-08-29T14:48:33.577Z,25.1
2023-08-29T14:49:49.818Z,25.6
2023-08-29T14:51:06.071Z,25
2023-08-29T14:52:22.315Z,25.3
2023-08-29T14:53:38.568Z,25.7
2023-08-29T14:54:54.824Z,25.5
2023-08-29T14:56:11.061Z,26.1
2023-08-29T14:57:26.366Z,25.3
2023-08-29T14:58:42.624Z,25.6
2023-08-29T14:59:58.863Z,24.7
2023-08-29T15:01:15.118Z,24.7
2023-08-29T15:02:31.364Z,24.5
2023-08-29T15:03:47.628Z,24.8
2023-08-29T15:05:03.867Z,24.1
2023-08-29T15:06:20.111Z,23.8
2023-08-29T15:07:36.362Z,24.6
2023-08-29T15:08:52.608Z,24.5
2023-08-29T15:10:08.853Z,24
2023-08-29T15:11:25.097Z,24.3
2023-08-29T15:12:41.352Z,24.4
2023-08-29T15:13:56.656Z,23.7
2023-08-29T15:15:12.908Z,23.9
2023-08-29T15:16:29.151Z,24
2023-08-29T15:17:45.419Z,24.2
2023-08-29T15:19:01.650Z,24.4
2023-08-29T15:20:17.904Z,24.6
2023-08-29T15:21:34.147Z,24.4
2023-08-29T15:22:50.395Z,25
2023-08-29T15:24:06.650Z,24.4
2023-08-29T15:25:22.894Z,24.6
2023-08-29T15:26:39.141Z,24.7
2023-08-29T15:27:55.389Z,24.9
2023-08-29T15:29:11.638Z,25.1
2023-08-29T15:30:26.942Z,24.9
2023-08-29T15:31:43.188Z,24.6
2023-08-29T15:32:59.451Z,24.7
2023-08-29T15:34:15.698Z,24.5
2023-08-29T15:35:31.943Z,24.8
2023-08-29T15:36:48.185Z,25
2023-08-29T15:38:04.436Z,25
2023-08-29T15:39:20.693Z,25.5
2023-08-29T15:40:36.936Z,25
2023-08-29T15:41:53.188Z,25
2023-08-29T15:43:09.450Z,24.5
2023-08-29T15:44:25.681Z,24.8
2023-08-29T15:45:41.931Z,25.6
2023-08-29T15:46:57.238Z,25.8
2023-08-29T15:48:13.493Z,25.4
2023-08-29T15:49:29.735Z,25.6
2023-08-29T15:50:45.978Z,25.2
2023-08-29T15:52:02.233Z,25.8
2023-08-29T15:53:18.478Z,25.6
2023-08-29T15:54:34.731Z,25.8
2023-08-29T15:55:50.982Z,25.8
2023-08-29T15:57:07.230Z,26
2023-08-29T15:58:23.480Z,26.6
2023-08-29T15:59:39.721Z,25.9
2023-08-29T16:00:55.971Z,26.3
2023-08-29T16:02:12.221Z,26.2
2023-08-29T16:03:28.468Z,25.8
2023-08-29T16:04:44.720Z,26.5
2023-08-29T16:06:00.022Z,27.7
2023-08-29T16:07:16.273Z,26.3
2023-08-29T16:08:32.521Z,26.1
2023-08-29T16:09:46.000Z,27.4
2023-08-29T16:09:48.774Z,27.5
2023-08-29T16:12:21.270Z,28.1
2023-08-29T16:13:37.513Z,28.2
2023-08-29T16:14:53.765Z,28.7
2023-08-29T16:16:10.018Z,28.8
2023-08-29T16:17:26.263Z,28.4
2023-08-29T16:18:42.511Z,28.5
2023-08-29T16:19:58.761Z,29.3
2023-08-29T16:21:15.014Z,29.1
2023-08-29T16:22:30.308Z,30.4
2023-08-29T16:23:46.563Z,29.8
2023-08-29T16:25:02.811Z,29.7
2023-08-29T16:26:19.057Z,29.1
2023-08-29T16:27:35.306Z,24.4
2023-08-29T16:28:51.554Z,21.4
2023-08-29T16:30:07.805Z,21.5
2023-08-29T16:31:24.048Z,20.8
2023-08-29T16:32:40.299Z,20.4
2023-08-29T16:33:53.000Z,20.5
2023-08-29T16:33:56.553Z,20.2
2023-08-29T16:36:29.051Z,21.3
2023-08-29T16:37:45.301Z,20.4
2023-08-29T16:39:00.594Z,21.1
2023-08-29T16:40:16.847Z,20.5
2023-08-29T16:41:33.094Z,20.2
2023-08-29T16:42:49.346Z,21.3
2023-08-29T16:44:05.594Z,21.1
2023-08-29T16:45:21.848Z,21.6
2023-08-29T16:46:38.094Z,24.1
2023-08-29T16:47:54.338Z,25.7
2023-08-29T16:49:10.589Z,28.1
2023-08-29T16:50:26.836Z,28
2023-08-29T16:51:43.088Z,29.8
2023-08-29T16:52:59.339Z,27.6
2023-08-29T16:54:15.578Z,27.7
2023-08-29T16:55:30.897Z,27
2023-08-29T16:56:47.133Z,26
2023-08-29T16:58:03.390Z,26.3
2023-08-29T16:59:19.638Z,26.4
2023-08-29T17:00:35.885Z,25.3
2023-08-29T17:01:52.134Z,25.2
2023-08-29T17:03:05.000Z,24.9
2023-08-29T17:03:08.376Z,25.2
2023-08-29T17:05:40.883Z,24.7
2023-08-29T17:06:57.122Z,24.3
2023-08-29T17:08:13.375Z,25.3
2023-08-29T17:09:29.622Z,24.5
2023-08-29T17:10:45.873Z,23.9
2023-08-29T17:12:01.177Z,23.8
2023-08-29T17:13:17.427Z,23.8
2023-08-29T17:14:33.671Z,24.2